Terminal Aerodrome Forecast
Issued by NWS Upton, NY

Home | Current Version | Previous Version | Text Only | Print | Product List | Glossary On
Versions: 1 2 3 4 5 6 7 8 9 10 11 12 13 14 15 16 17 18 19 20 21 22 23 24 25 26 27 28 29 30 31 32 33 34 35
272
FTUS41 KOKX 222020 AAB
TAFEWR
TAF AMD
KEWR 222020Z 2220/2324 VRB04KT 4SM -RA BR BKN004 OVC015
      TEMPO 2220/2224 2SM RA BR
     FM230100 17006KT 3SM BR OVC005
     FM230400 VRB03KT 3SM BR OVC005
     FM230900 35009KT P6SM BKN015 OVC030
     FM231300 02008KT P6SM BKN030
     FM231600 02006KT P6SM SCT030=

USA.gov is the U.S. government's official web portal to all federal, state and local government web resources and services.